createdAt,value
2023-05-11T00:00:31.848Z,13.30
2023-05-11T00:03:00.373Z,13.30
2023-05-11T00:05:30.782Z,13.20
2023-05-11T00:07:58.244Z,13.20
2023-05-11T00:10:31.164Z,13.20
2023-05-11T00:13:05.370Z,13.20
2023-05-11T00:15:32.727Z,13.10
2023-05-11T00:18:00.366Z,13.20
2023-05-11T00:20:33.945Z,13.20
2023-05-11T00:23:01.394Z,13.30
2023-05-11T00:25:33.650Z,13.20
2023-05-11T00:28:03.242Z,13.20
2023-05-11T00:30:34.431Z,13.20
2023-05-11T00:33:01.810Z,13.10
2023-05-11T00:35:48.486Z,13.10
2023-05-11T00:38:16.176Z,13.10
2023-05-11T00:40:43.508Z,13.20
2023-05-11T00:43:13.792Z,13.20
2023-05-11T00:45:43.915Z,13.20
2023-05-11T00:48:13.746Z,13.20
2023-05-11T00:50:44.789Z,13.30
2023-05-11T00:53:12.455Z,13.20
2023-05-11T00:55:41.712Z,13.20
2023-05-11T00:58:09.094Z,13.20
2023-05-11T01:00:45.283Z,13.10
2023-05-11T01:03:15.057Z,13.20
2023-05-11T01:09:41.676Z,13.10
2023-05-11T01:12:40.897Z,13.10
2023-05-11T01:15:15.061Z,13.10
2023-05-11T01:18:01.181Z,13.10
2023-05-11T01:20:31.478Z,13.20
2023-05-11T01:23:18.762Z,13.10
2023-05-11T01:26:07.694Z,13.10
2023-05-11T01:29:13.793Z,13.10
2023-05-11T01:31:46.919Z,13.10
2023-05-11T01:34:25.385Z,13.10
2023-05-11T01:36:59.886Z,13.10
2023-05-11T01:39:36.229Z,13.10
2023-05-11T01:42:13.316Z,13.10
2023-05-11T01:44:45.008Z,13.00
2023-05-11T01:47:17.256Z,13.10
2023-05-11T01:49:46.011Z,13.00
2023-05-11T01:52:14.662Z,13.00
2023-05-11T01:54:47.438Z,13.00
2023-05-11T01:57:17.094Z,12.90
2023-05-11T01:59:46.559Z,13.00
2023-05-11T02:02:15.043Z,12.90
2023-05-11T02:04:54.972Z,12.90
2023-05-11T02:07:24.287Z,12.90
2023-05-11T02:09:52.861Z,12.90
2023-05-11T02:12:27.123Z,12.90
2023-05-11T02:14:59.789Z,12.90
2023-05-11T02:17:31.823Z,12.90
2023-05-11T02:20:01.929Z,12.90
2023-05-11T02:22:32.614Z,12.90
2023-05-11T02:25:00.492Z,12.80
2023-05-11T02:27:28.211Z,12.70
2023-05-11T02:29:55.608Z,12.70
2023-05-11T02:32:25.898Z,12.70
2023-05-11T02:35:01.856Z,12.80
2023-05-11T02:37:33.240Z,12.70
2023-05-11T02:40:06.732Z,12.70
2023-05-11T02:42:40.233Z,12.70
2023-05-11T02:45:14.572Z,12.70
2023-05-11T02:47:53.342Z,12.70
2023-05-11T02:50:24.549Z,12.60
2023-05-11T02:52:55.112Z,12.50
2023-05-11T02:55:23.807Z,12.60
2023-05-11T02:57:57.288Z,12.70
2023-05-11T03:00:26.147Z,12.70
2023-05-11T03:02:56.358Z,12.70
2023-05-11T03:05:24.523Z,12.70
2023-05-11T03:07:53.225Z,12.60
2023-05-11T03:10:23.345Z,12.60
2023-05-11T03:12:51.865Z,12.50
2023-05-11T03:15:20.553Z,12.60
2023-05-11T03:17:51.865Z,12.60
2023-05-11T03:20:22.538Z,12.60
2023-05-11T03:22:50.145Z,12.50
2023-05-11T03:25:21.890Z,12.50
2023-05-11T03:27:51.631Z,12.50
2023-05-11T03:30:23.837Z,12.50
2023-05-11T03:32:53.922Z,12.40
2023-05-11T03:35:25.383Z,12.50
2023-05-11T03:37:55.234Z,12.50
2023-05-11T03:40:24.417Z,12.40
2023-05-11T03:42:57.051Z,12.50
2023-05-11T03:45:27.548Z,12.50
2023-05-11T03:47:56.650Z,12.40
2023-05-11T03:50:24.357Z,12.50
2023-05-11T03:52:52.391Z,12.50
2023-05-11T03:55:20.300Z,12.50
2023-05-11T03:57:48.670Z,12.50
2023-05-11T04:00:17.043Z,12.40
2023-05-11T04:02:44.769Z,12.40
2023-05-11T04:05:13.485Z,12.40
2023-05-11T04:07:41.610Z,12.40
2023-05-11T04:10:10.152Z,12.40
2023-05-11T04:12:37.528Z,12.50
2023-05-11T04:15:05.285Z,12.50
2023-05-11T04:17:32.741Z,12.40
2023-05-11T04:19:59.958Z,12.40
2023-05-11T04:22:27.184Z,12.40
2023-05-11T04:24:54.668Z,12.30
2023-05-11T04:27:21.845Z,12.40
2023-05-11T04:29:49.166Z,12.30
2023-05-11T04:32:16.687Z,12.30
2023-05-11T04:34:44.001Z,12.30
2023-05-11T04:37:11.177Z,12.30
2023-05-11T04:39:38.406Z,12.30
2023-05-11T04:42:05.702Z,12.20
2023-05-11T04:44:33.016Z,12.20
2023-05-11T04:47:00.291Z,12.20
2023-05-11T04:49:31.300Z,12.30
2023-05-11T04:52:00.339Z,12.40
2023-05-11T04:54:31.818Z,12.40
2023-05-11T04:56:59.169Z,12.30
2023-05-11T04:59:28.781Z,12.20
2023-05-11T05:01:59.164Z,12.40
2023-05-11T05:04:26.580Z,12.40
2023-05-11T05:06:54.508Z,12.50
2023-05-11T05:09:21.824Z,12.80
2023-05-11T05:11:49.030Z,12.80
2023-05-11T05:14:16.456Z,13.10
2023-05-11T05:19:36.174Z,12.90
2023-05-11T05:22:03.611Z,13.10
2023-05-11T05:24:34.737Z,12.90
2023-05-11T05:29:50.723Z,12.60
2023-05-11T05:32:18.454Z,12.70
2023-05-11T05:34:47.290Z,12.60
2023-05-11T05:37:14.791Z,12.60
2023-05-11T05:40:14.121Z,12.60
2023-05-11T05:42:50.085Z,12.70
2023-05-11T05:45:29.637Z,12.80
2023-05-11T05:48:09.816Z,12.90
2023-05-11T05:51:03.035Z,12.80
2023-05-11T05:56:21.086Z,12.70
2023-05-11T05:58:54.022Z,12.70
2023-05-11T06:01:22.950Z,12.80
2023-05-11T06:03:52.253Z,12.70
2023-05-11T06:06:35.294Z,12.80
2023-05-11T06:09:09.466Z,12.80
2023-05-11T06:11:41.530Z,12.70
2023-05-11T06:14:43.461Z,12.70
2023-05-11T06:17:11.807Z,12.80
2023-05-11T06:26:03.383Z,13.10
2023-05-11T06:28:33.015Z,13.20
2023-05-11T06:31:06.770Z,13.20
2023-05-11T06:36:57.865Z,13.00
2023-05-11T06:39:29.031Z,13.00
2023-05-11T06:42:01.416Z,12.90
2023-05-11T06:44:32.858Z,12.90
2023-05-11T06:47:40.757Z,13.00
2023-05-11T06:50:21.936Z,13.10
2023-05-11T06:53:02.189Z,13.10
2023-05-11T06:55:38.183Z,13.00
2023-05-11T06:58:20.785Z,12.90
2023-05-11T07:01:10.271Z,12.90
2023-05-11T07:04:09.077Z,13.00
2023-05-11T07:12:28.160Z,13.30
2023-05-11T07:14:56.927Z,13.30
2023-05-11T07:20:13.381Z,13.20
2023-05-11T07:25:38.267Z,13.20
2023-05-11T07:28:08.052Z,13.20
2023-05-11T07:30:46.363Z,13.20
2023-05-11T07:36:05.871Z,13.30
2023-05-11T07:38:41.404Z,13.30
2023-05-11T07:41:12.502Z,13.40
2023-05-11T07:43:40.604Z,13.40
2023-05-11T07:46:08.099Z,13.30
2023-05-11T07:48:42.783Z,13.40
2023-05-11T08:03:24.056Z,14.00
2023-05-11T08:06:18.410Z,14.00
2023-05-11T08:11:33.296Z,13.60
2023-05-11T08:14:07.382Z,13.60
2023-05-11T08:16:45.257Z,13.60
2023-05-11T08:19:21.012Z,13.50
2023-05-11T08:24:40.704Z,13.60
2023-05-11T08:27:09.652Z,13.70
2023-05-11T08:29:42.124Z,13.70
2023-05-11T08:32:14.631Z,13.70
2023-05-11T08:34:45.491Z,13.60
2023-05-11T08:37:22.425Z,13.70
2023-05-11T08:39:59.242Z,13.80
2023-05-11T08:42:41.885Z,13.80
2023-05-11T08:45:23.858Z,13.70
2023-05-11T08:47:54.834Z,13.70
2023-05-11T08:53:12.225Z,13.60
2023-05-11T08:55:42.466Z,13.60
2023-05-11T08:58:13.264Z,13.60
2023-05-11T09:00:42.161Z,13.60
2023-05-11T09:03:31.565Z,13.50
2023-05-11T09:11:28.480Z,13.60
2023-05-11T09:13:56.259Z,13.60
2023-05-11T09:24:51.889Z,13.80
2023-05-11T09:30:40.384Z,14.00
2023-05-11T09:33:25.069Z,14.00
2023-05-11T09:35:57.646Z,14.20
2023-05-11T09:38:34.276Z,14.30
2023-05-11T09:41:03.911Z,14.30
2023-05-11T09:43:55.016Z,14.30
2023-05-11T09:46:25.613Z,14.30
2023-05-11T09:49:00.917Z,14.50
2023-05-11T09:54:55.014Z,14.50
2023-05-11T09:57:37.166Z,14.80
2023-05-11T10:00:09.061Z,14.90
2023-05-11T10:02:37.563Z,14.70
2023-05-11T10:05:13.511Z,14.70
2023-05-11T10:08:37.364Z,14.70
2023-05-11T10:14:18.797Z,14.90
2023-05-11T10:16:49.008Z,14.90
2023-05-11T10:22:45.984Z,14.80
2023-05-11T10:25:18.601Z,14.80
2023-05-11T10:27:49.821Z,14.90
2023-05-11T10:30:17.689Z,14.80
2023-05-11T10:39:18.323Z,14.70
2023-05-11T10:42:01.685Z,14.80
2023-05-11T10:44:51.306Z,14.80
2023-05-11T10:47:55.821Z,14.80
2023-05-11T10:50:38.060Z,14.80
2023-05-11T10:53:31.388Z,14.80
2023-05-11T10:56:35.538Z,14.80
2023-05-11T10:59:28.422Z,14.80
2023-05-11T11:01:59.396Z,14.90
2023-05-11T11:04:43.720Z,14.90
2023-05-11T11:10:15.329Z,15.00
2023-05-11T11:13:02.882Z,15.10
2023-05-11T11:16:00.466Z,15.10
2023-05-11T11:18:35.001Z,15.10
2023-05-11T11:29:56.745Z,14.60
2023-05-11T11:32:39.880Z,14.60
2023-05-11T11:35:42.603Z,14.70
2023-05-11T11:38:30.714Z,14.90
2023-05-11T11:43:56.195Z,14.90
2023-05-11T11:52:02.840Z,15.10
2023-05-11T11:54:45.235Z,15.10
2023-05-11T12:03:07.095Z,15.00
2023-05-11T12:08:24.110Z,15.10
2023-05-11T12:11:04.068Z,15.00
2023-05-11T12:13:38.487Z,15.10
2023-05-11T12:16:18.308Z,15.10
2023-05-11T12:19:00.121Z,15.00
2023-05-11T12:21:32.463Z,15.10
2023-05-11T12:24:08.180Z,15.20
2023-05-11T12:26:35.948Z,15.20
2023-05-11T12:29:18.439Z,15.10
2023-05-11T12:31:54.172Z,15.10
2023-05-11T12:34:33.026Z,15.20
2023-05-11T12:37:04.957Z,15.20
2023-05-11T12:39:40.479Z,15.40
2023-05-11T12:42:16.218Z,15.50
2023-05-11T12:44:43.644Z,15.60
2023-05-11T12:47:12.649Z,15.70
2023-05-11T12:49:44.897Z,15.60
2023-05-11T12:52:13.990Z,15.60
2023-05-11T12:55:00.378Z,15.50
2023-05-11T12:57:32.132Z,15.50
2023-05-11T13:00:10.291Z,15.50
2023-05-11T13:02:54.098Z,15.40
2023-05-11T13:05:27.169Z,15.50
2023-05-11T13:08:09.941Z,15.50
2023-05-11T13:10:42.440Z,15.50
2023-05-11T13:13:36.401Z,15.50
2023-05-11T13:16:05.433Z,15.30
2023-05-11T13:18:33.212Z,15.40
2023-05-11T13:21:10.352Z,15.40
2023-05-11T13:23:47.490Z,15.40
2023-05-11T13:26:28.905Z,15.40
2023-05-11T13:29:09.360Z,15.60
2023-05-11T13:31:50.363Z,15.60
2023-05-11T13:34:33.635Z,15.60
2023-05-11T13:37:16.362Z,15.60
2023-05-11T13:40:12.121Z,15.50
2023-05-11T13:42:45.252Z,15.50
2023-05-11T13:45:56.940Z,15.60
2023-05-11T13:48:25.569Z,15.60
2023-05-11T13:50:56.480Z,15.70
2023-05-11T13:53:25.410Z,15.50
2023-05-11T14:01:19.793Z,15.80
2023-05-11T14:03:53.171Z,15.80
2023-05-11T14:06:33.856Z,16.00
2023-05-11T14:09:01.194Z,15.90
2023-05-11T14:11:28.399Z,15.90
2023-05-11T14:14:03.593Z,15.90
2023-05-11T14:16:31.841Z,15.90
2023-05-11T14:18:59.364Z,15.90
2023-05-11T14:21:46.573Z,15.90
2023-05-11T14:24:14.404Z,15.90
2023-05-11T14:26:50.914Z,15.90
2023-05-11T14:29:18.862Z,15.90
2023-05-11T14:31:47.705Z,15.90
2023-05-11T14:34:20.440Z,15.90
2023-05-11T14:36:50.440Z,15.90
2023-05-11T14:42:02.151Z,16.00
2023-05-11T14:44:59.536Z,16.00
2023-05-11T14:47:26.914Z,16.00
2023-05-11T14:49:54.502Z,15.90
2023-05-11T14:52:27.120Z,15.80
2023-05-11T14:54:56.071Z,15.80
2023-05-11T14:57:26.300Z,15.90
2023-05-11T14:59:59.596Z,15.80
2023-05-11T15:02:30.525Z,15.80
2023-05-11T15:05:00.420Z,15.70
2023-05-11T15:07:32.584Z,15.60
2023-05-11T15:10:05.535Z,15.60
2023-05-11T15:12:40.403Z,15.60
2023-05-11T15:15:14.357Z,15.60
2023-05-11T15:23:28.563Z,15.60
2023-05-11T15:26:43.799Z,15.60
2023-05-11T15:32:52.523Z,15.70
2023-05-11T15:35:21.347Z,15.50
2023-05-11T15:38:02.171Z,15.60
2023-05-11T15:43:59.803Z,15.30
2023-05-11T15:46:51.306Z,15.40
2023-05-11T15:50:20.561Z,15.40
2023-05-11T15:53:16.008Z,15.40
2023-05-11T15:55:59.237Z,15.50
2023-05-11T15:58:30.064Z,15.60
2023-05-11T16:01:27.924Z,15.60
2023-05-11T16:03:57.218Z,15.60
2023-05-11T16:06:48.240Z,15.50
2023-05-11T16:10:13.806Z,15.40
2023-05-11T16:13:16.938Z,15.30
2023-05-11T16:15:49.512Z,15.20
2023-05-11T16:21:40.634Z,15.10
2023-05-11T16:24:16.981Z,14.90
2023-05-11T16:30:22.306Z,14.70
2023-05-11T16:33:41.557Z,14.70
2023-05-11T16:36:14.996Z,14.70
2023-05-11T16:42:20.794Z,14.60
2023-05-11T16:45:30.079Z,14.50
2023-05-11T16:48:00.315Z,14.60
2023-05-11T16:50:30.452Z,14.50
2023-05-11T16:53:05.039Z,14.50
2023-05-11T16:55:49.602Z,14.40
2023-05-11T17:01:24.276Z,14.40
2023-05-11T17:04:13.411Z,14.40
2023-05-11T17:06:43.770Z,14.30
2023-05-11T17:09:14.388Z,14.20
2023-05-11T17:11:42.571Z,14.30
2023-05-11T17:14:16.824Z,14.30
2023-05-11T17:16:46.826Z,14.30
2023-05-11T17:19:49.935Z,14.40
2023-05-11T17:22:26.240Z,14.40
2023-05-11T17:31:35.514Z,14.70
2023-05-11T17:34:11.516Z,14.50
2023-05-11T17:36:46.325Z,14.30
2023-05-11T17:39:22.490Z,14.20
2023-05-11T17:44:45.117Z,14.00
2023-05-11T17:47:12.465Z,13.90
2023-05-11T17:49:39.726Z,13.90
2023-05-11T17:52:27.705Z,13.90
2023-05-11T17:54:59.938Z,13.80
2023-05-11T17:57:28.644Z,13.80
2023-05-11T18:00:02.459Z,13.80
2023-05-11T18:02:34.739Z,14.00
2023-05-11T18:05:06.221Z,14.10
2023-05-11T18:07:35.443Z,14.00
2023-05-11T18:10:06.557Z,13.90
2023-05-11T18:12:34.407Z,13.80
2023-05-11T18:15:02.735Z,13.70
2023-05-11T18:17:31.095Z,13.70
2023-05-11T18:19:59.784Z,13.80
2023-05-11T18:22:27.182Z,13.70
2023-05-11T18:24:54.586Z,13.70
2023-05-11T18:27:24.120Z,13.70
2023-05-11T18:29:52.917Z,13.70
2023-05-11T18:32:20.654Z,13.70
2023-05-11T18:34:53.593Z,13.60
2023-05-11T18:40:07.725Z,13.60
2023-05-11T18:42:39.862Z,13.60
2023-05-11T18:45:13.599Z,13.60
2023-05-11T18:47:45.514Z,13.60
2023-05-11T18:50:13.068Z,13.60
2023-05-11T18:52:50.897Z,13.60
2023-05-11T18:55:41.079Z,13.60
2023-05-11T18:58:24.543Z,13.60
2023-05-11T19:03:45.157Z,13.50
2023-05-11T19:06:13.468Z,13.50
2023-05-11T19:14:13.720Z,13.40
2023-05-11T19:16:51.663Z,13.30
2023-05-11T19:19:20.842Z,13.40
2023-05-11T19:21:56.257Z,13.40
2023-05-11T19:24:44.955Z,13.40
2023-05-11T19:29:56.487Z,13.40
2023-05-11T19:32:26.783Z,13.40
2023-05-11T19:34:54.945Z,13.40
2023-05-11T19:37:22.805Z,13.40
2023-05-11T19:39:55.400Z,13.30
2023-05-11T19:42:39.270Z,13.30
2023-05-11T19:45:19.082Z,13.30
2023-05-11T19:47:46.276Z,13.30
2023-05-11T19:50:21.785Z,13.30
2023-05-11T19:52:51.134Z,13.30
2023-05-11T19:55:45.409Z,13.30
2023-05-11T20:01:12.047Z,13.40
2023-05-11T20:03:41.020Z,13.60
2023-05-11T20:06:11.154Z,13.40
2023-05-11T20:08:43.368Z,13.30
2023-05-11T20:11:38.266Z,13.30
2023-05-11T20:14:07.571Z,13.30
2023-05-11T20:16:38.196Z,13.30
2023-05-11T20:19:15.421Z,13.30
2023-05-11T20:21:57.393Z,13.20
2023-05-11T20:24:30.531Z,13.20
2023-05-11T20:27:06.005Z,13.30
2023-05-11T20:29:34.255Z,13.20
2023-05-11T20:32:04.276Z,13.20
2023-05-11T20:34:59.699Z,13.20
2023-05-11T20:37:39.847Z,13.20
2023-05-11T20:40:08.338Z,13.20
2023-05-11T20:42:49.456Z,13.20
2023-05-11T20:45:19.939Z,13.20
2023-05-11T20:51:21.537Z,13.10
2023-05-11T20:53:57.278Z,13.10
2023-05-11T20:56:31.242Z,13.20
2023-05-11T20:59:04.481Z,13.30
2023-05-11T21:01:40.350Z,13.20
2023-05-11T21:04:27.611Z,13.20
2023-05-11T21:06:59.997Z,13.10
2023-05-11T21:09:40.695Z,13.20
2023-05-11T21:15:21.652Z,13.20
2023-05-11T21:17:49.578Z,13.10
2023-05-11T21:20:31.608Z,13.10
2023-05-11T21:23:10.707Z,13.10
2023-05-11T21:25:41.968Z,13.10
2023-05-11T21:28:18.960Z,12.90
2023-05-11T21:31:12.830Z,13.00
2023-05-11T21:34:01.970Z,13.00
2023-05-11T21:36:38.087Z,13.30
2023-05-11T21:39:09.356Z,13.50
2023-05-11T21:41:44.493Z,13.50
2023-05-11T21:44:23.244Z,13.40
2023-05-11T21:46:57.278Z,13.30
2023-05-11T21:49:45.086Z,13.10
2023-05-11T21:52:13.473Z,13.10
2023-05-11T21:54:40.950Z,13.10
2023-05-11T21:57:09.739Z,13.10
2023-05-11T21:59:48.851Z,13.10
2023-05-11T22:02:31.832Z,13.10
2023-05-11T22:07:49.285Z,13.00
2023-05-11T22:10:36.378Z,13.00
2023-05-11T22:13:03.917Z,13.00
2023-05-11T22:18:31.834Z,13.00
2023-05-11T22:21:05.914Z,12.90
2023-05-11T22:23:38.980Z,12.90
2023-05-11T22:26:12.167Z,13.00
2023-05-11T22:28:40.483Z,13.00
2023-05-11T22:31:08.076Z,12.90
2023-05-11T22:33:37.109Z,12.90
2023-05-11T22:36:08.666Z,12.90
2023-05-11T22:38:38.274Z,13.00
2023-05-11T22:41:12.163Z,13.10
2023-05-11T22:43:39.406Z,13.00
2023-05-11T22:46:09.116Z,13.00
2023-05-11T22:48:42.918Z,13.00
2023-05-11T22:51:10.561Z,13.10
2023-05-11T22:53:40.678Z,13.00
2023-05-11T22:56:10.034Z,13.10
2023-05-11T22:58:37.384Z,13.00
2023-05-11T23:01:04.646Z,13.10
2023-05-11T23:03:37.858Z,13.00
2023-05-11T23:06:06.235Z,13.00
2023-05-11T23:08:33.570Z,13.10
2023-05-11T23:11:09.564Z,13.10
2023-05-11T23:13:37.435Z,13.00
2023-05-11T23:16:05.812Z,12.90
2023-05-11T23:18:33.435Z,12.90
2023-05-11T23:21:01.873Z,12.90
2023-05-11T23:23:46.835Z,12.90
2023-05-11T23:26:21.405Z,12.80
2023-05-11T23:28:51.085Z,12.80
2023-05-11T23:31:18.541Z,12.80
2023-05-11T23:33:49.669Z,12.80
2023-05-11T23:36:17.952Z,12.80
2023-05-11T23:41:33.117Z,12.70
2023-05-11T23:44:04.834Z,12.70
2023-05-11T23:46:35.006Z,12.80
2023-05-11T23:49:02.916Z,12.70
2023-05-11T23:51:31.291Z,12.70
2023-05-11T23:54:12.837Z,12.60
2023-05-11T23:56:45.067Z,12.70
2023-05-11T23:59:21.411Z,12.70
